sensor_id;sensor_type;location;lat;lon;timestamp;P1;durP1;ratioP1;P2;durP2;ratioP2
44248;SDS011;29923;48.718;9.272;2022-12-11T00:01:20;29.65;;;17.58;;
44248;SDS011;29923;48.718;9.272;2022-12-11T00:03:46;30.27;;;18.30;;
44248;SDS011;29923;48.718;9.272;2022-12-11T00:06:13;29.40;;;17.80;;
44248;SDS011;29923;48.718;9.272;2022-12-11T00:08:40;31.95;;;18.02;;
44248;SDS011;29923;48.718;9.272;2022-12-11T00:11:10;29.10;;;18.02;;
44248;SDS011;29923;48.718;9.272;2022-12-11T00:13:37;31.95;;;17.98;;
44248;SDS011;29923;48.718;9.272;2022-12-11T00:16:03;30.48;;;18.00;;
44248;SDS011;29923;48.718;9.272;2022-12-11T00:18:28;30.63;;;17.25;;
44248;SDS011;29923;48.718;9.272;2022-12-11T00:20:54;27.90;;;16.85;;
44248;SDS011;29923;48.718;9.272;2022-12-11T00:23:21;33.60;;;17.90;;
44248;SDS011;29923;48.718;9.272;2022-12-11T00:25:46;31.08;;;17.88;;
44248;SDS011;29923;48.718;9.272;2022-12-11T00:28:13;30.13;;;18.17;;
44248;SDS011;29923;48.718;9.272;2022-12-11T00:30:42;28.23;;;16.38;;
44248;SDS011;29923;48.718;9.272;2022-12-11T00:33:08;30.55;;;17.33;;
44248;SDS011;29923;48.718;9.272;2022-12-11T00:35:37;31.35;;;18.20;;
44248;SDS011;29923;48.718;9.272;2022-12-11T00:38:06;24.30;;;14.00;;
44248;SDS011;29923;48.718;9.272;2022-12-11T00:40:33;25.08;;;15.77;;
44248;SDS011;29923;48.718;9.272;2022-12-11T00:43:01;31.50;;;17.30;;
44248;SDS011;29923;48.718;9.272;2022-12-11T00:45:26;28.95;;;17.75;;
44248;SDS011;29923;48.718;9.272;2022-12-11T00:47:52;29.83;;;18.08;;
44248;SDS011;29923;48.718;9.272;2022-12-11T00:50:17;33.20;;;18.83;;
44248;SDS011;29923;48.718;9.272;2022-12-11T00:52:42;31.58;;;18.48;;
44248;SDS011;29923;48.718;9.272;2022-12-11T00:55:08;31.80;;;19.02;;
44248;SDS011;29923;48.718;9.272;2022-12-11T00:57:33;37.30;;;19.13;;
44248;SDS011;29923;48.718;9.272;2022-12-11T00:59:58;34.70;;;20.50;;
44248;SDS011;29923;48.718;9.272;2022-12-11T01:02:24;34.67;;;20.00;;
44248;SDS011;29923;48.718;9.272;2022-12-11T01:04:49;36.55;;;20.13;;
44248;SDS011;29923;48.718;9.272;2022-12-11T01:07:14;32.03;;;18.70;;
44248;SDS011;29923;48.718;9.272;2022-12-11T01:09:40;35.25;;;20.10;;
44248;SDS011;29923;48.718;9.272;2022-12-11T01:14:50;30.92;;;17.95;;
44248;SDS011;29923;48.718;9.272;2022-12-11T01:17:16;33.45;;;19.77;;
44248;SDS011;29923;48.718;9.272;2022-12-11T01:19:41;35.70;;;19.98;;
44248;SDS011;29923;48.718;9.272;2022-12-11T01:22:06;31.92;;;19.25;;
44248;SDS011;29923;48.718;9.272;2022-12-11T01:24:32;34.88;;;19.10;;
44248;SDS011;29923;48.718;9.272;2022-12-11T01:26:57;28.20;;;16.73;;
44248;SDS011;29923;48.718;9.272;2022-12-11T01:29:23;32.40;;;17.67;;
44248;SDS011;29923;48.718;9.272;2022-12-11T01:31:48;31.75;;;17.52;;
44248;SDS011;29923;48.718;9.272;2022-12-11T01:34:13;29.40;;;16.98;;
44248;SDS011;29923;48.718;9.272;2022-12-11T01:36:39;31.73;;;18.38;;
44248;SDS011;29923;48.718;9.272;2022-12-11T01:39:04;31.35;;;17.77;;
44248;SDS011;29923;48.718;9.272;2022-12-11T01:41:29;29.38;;;17.92;;
44248;SDS011;29923;48.718;9.272;2022-12-11T01:44:02;31.70;;;18.77;;
44248;SDS011;29923;48.718;9.272;2022-12-11T01:46:30;32.55;;;19.23;;
44248;SDS011;29923;48.718;9.272;2022-12-11T01:48:57;33.38;;;18.83;;
44248;SDS011;29923;48.718;9.272;2022-12-11T01:51:24;35.88;;;17.83;;
44248;SDS011;29923;48.718;9.272;2022-12-11T01:53:50;33.40;;;19.23;;
44248;SDS011;29923;48.718;9.272;2022-12-11T01:56:21;37.00;;;19.20;;
44248;SDS011;29923;48.718;9.272;2022-12-11T01:58:48;34.50;;;20.50;;
44248;SDS011;29923;48.718;9.272;2022-12-11T02:01:17;33.83;;;19.27;;
44248;SDS011;29923;48.718;9.272;2022-12-11T02:03:49;32.20;;;19.15;;
44248;SDS011;29923;48.718;9.272;2022-12-11T02:09:04;34.33;;;18.77;;
44248;SDS011;29923;48.718;9.272;2022-12-11T02:11:34;33.35;;;19.63;;
44248;SDS011;29923;48.718;9.272;2022-12-11T02:17:00;35.63;;;19.60;;
44248;SDS011;29923;48.718;9.272;2022-12-11T02:19:43;35.47;;;20.45;;
44248;SDS011;29923;48.718;9.272;2022-12-11T02:25:08;35.55;;;20.60;;
44248;SDS011;29923;48.718;9.272;2022-12-11T02:27:40;39.45;;;21.50;;
44248;SDS011;29923;48.718;9.272;2022-12-11T02:30:10;36.47;;;20.45;;
44248;SDS011;29923;48.718;9.272;2022-12-11T02:37:29;33.90;;;20.55;;
44248;SDS011;29923;48.718;9.272;2022-12-11T02:39:56;39.35;;;19.92;;
44248;SDS011;29923;48.718;9.272;2022-12-11T02:42:22;34.30;;;20.25;;
44248;SDS011;29923;48.718;9.272;2022-12-11T02:44:49;37.50;;;21.30;;
44248;SDS011;29923;48.718;9.272;2022-12-11T02:47:15;34.22;;;20.58;;
44248;SDS011;29923;48.718;9.272;2022-12-11T02:49:43;34.13;;;20.25;;
44248;SDS011;29923;48.718;9.272;2022-12-11T02:52:13;35.85;;;20.27;;
44248;SDS011;29923;48.718;9.272;2022-12-11T02:54:40;34.90;;;20.05;;
44248;SDS011;29923;48.718;9.272;2022-12-11T02:59:55;33.33;;;20.05;;
44248;SDS011;29923;48.718;9.272;2022-12-11T03:02:21;34.58;;;20.20;;
44248;SDS011;29923;48.718;9.272;2022-12-11T03:04:46;34.72;;;20.25;;
44248;SDS011;29923;48.718;9.272;2022-12-11T03:07:17;34.30;;;19.90;;
44248;SDS011;29923;48.718;9.272;2022-12-11T03:09:47;36.08;;;20.38;;
44248;SDS011;29923;48.718;9.272;2022-12-11T03:12:15;33.65;;;18.65;;
44248;SDS011;29923;48.718;9.272;2022-12-11T03:14:43;32.72;;;19.50;;
44248;SDS011;29923;48.718;9.272;2022-12-11T03:17:13;33.22;;;18.90;;
44248;SDS011;29923;48.718;9.272;2022-12-11T03:19:47;35.35;;;19.73;;
44248;SDS011;29923;48.718;9.272;2022-12-11T03:22:21;33.17;;;19.55;;
44248;SDS011;29923;48.718;9.272;2022-12-11T03:24:58;32.65;;;18.25;;
44248;SDS011;29923;48.718;9.272;2022-12-11T03:27:26;35.13;;;18.85;;
44248;SDS011;29923;48.718;9.272;2022-12-11T03:30:02;31.65;;;18.48;;
44248;SDS011;29923;48.718;9.272;2022-12-11T03:32:34;30.90;;;18.10;;
44248;SDS011;29923;48.718;9.272;2022-12-11T03:37:38;32.38;;;18.83;;
44248;SDS011;29923;48.718;9.272;2022-12-11T03:40:11;32.53;;;17.70;;
44248;SDS011;29923;48.718;9.272;2022-12-11T03:42:40;36.17;;;20.48;;
44248;SDS011;29923;48.718;9.272;2022-12-11T03:45:06;32.47;;;19.10;;
44248;SDS011;29923;48.718;9.272;2022-12-11T03:47:32;31.38;;;18.50;;
44248;SDS011;29923;48.718;9.272;2022-12-11T03:49:58;32.92;;;18.60;;
44248;SDS011;29923;48.718;9.272;2022-12-11T03:52:25;33.08;;;18.70;;
44248;SDS011;29923;48.718;9.272;2022-12-11T03:54:52;35.53;;;19.48;;
44248;SDS011;29923;48.718;9.272;2022-12-11T03:57:20;31.17;;;18.40;;
44248;SDS011;29923;48.718;9.272;2022-12-11T03:59:47;32.63;;;19.10;;
44248;SDS011;29923;48.718;9.272;2022-12-11T04:02:13;29.60;;;17.90;;
44248;SDS011;29923;48.718;9.272;2022-12-11T04:04:40;29.55;;;17.63;;
44248;SDS011;29923;48.718;9.272;2022-12-11T04:07:06;30.35;;;17.40;;
44248;SDS011;29923;48.718;9.272;2022-12-11T04:09:32;33.65;;;18.20;;
44248;SDS011;29923;48.718;9.272;2022-12-11T04:11:57;26.25;;;15.77;;
44248;SDS011;29923;48.718;9.272;2022-12-11T04:14:22;30.92;;;17.88;;
44248;SDS011;29923;48.718;9.272;2022-12-11T04:19:31;30.05;;;17.77;;
44248;SDS011;29923;48.718;9.272;2022-12-11T04:22:16;29.30;;;17.42;;
44248;SDS011;29923;48.718;9.272;2022-12-11T04:25:01;28.88;;;17.40;;
44248;SDS011;29923;48.718;9.272;2022-12-11T04:27:28;29.58;;;16.83;;
44248;SDS011;29923;48.718;9.272;2022-12-11T04:30:13;31.20;;;16.38;;
44248;SDS011;29923;48.718;9.272;2022-12-11T04:32:40;26.63;;;15.55;;
44248;SDS011;29923;48.718;9.272;2022-12-11T04:35:06;26.48;;;15.80;;
44248;SDS011;29923;48.718;9.272;2022-12-11T04:37:34;25.20;;;15.80;;
44248;SDS011;29923;48.718;9.272;2022-12-11T04:39:59;25.65;;;15.85;;
44248;SDS011;29923;48.718;9.272;2022-12-11T04:42:25;29.25;;;15.93;;
44248;SDS011;29923;48.718;9.272;2022-12-11T04:44:50;28.08;;;16.42;;
44248;SDS011;29923;48.718;9.272;2022-12-11T04:47:15;28.42;;;16.55;;
44248;SDS011;29923;48.718;9.272;2022-12-11T04:49:41;29.25;;;16.77;;
44248;SDS011;29923;48.718;9.272;2022-12-11T04:52:06;30.05;;;16.80;;
44248;SDS011;29923;48.718;9.272;2022-12-11T04:54:32;31.02;;;16.67;;
44248;SDS011;29923;48.718;9.272;2022-12-11T04:56:57;28.98;;;16.60;;
44248;SDS011;29923;48.718;9.272;2022-12-11T04:59:22;27.52;;;15.85;;
44248;SDS011;29923;48.718;9.272;2022-12-11T05:01:48;27.13;;;14.68;;
44248;SDS011;29923;48.718;9.272;2022-12-11T05:04:13;29.55;;;13.23;;
44248;SDS011;29923;48.718;9.272;2022-12-11T05:06:38;24.73;;;14.10;;
44248;SDS011;29923;48.718;9.272;2022-12-11T05:09:04;27.50;;;15.43;;
44248;SDS011;29923;48.718;9.272;2022-12-11T05:11:29;22.85;;;12.73;;
44248;SDS011;29923;48.718;9.272;2022-12-11T05:13:55;23.42;;;12.13;;
44248;SDS011;29923;48.718;9.272;2022-12-11T05:16:20;24.65;;;13.65;;
44248;SDS011;29923;48.718;9.272;2022-12-11T05:18:45;26.58;;;13.48;;
44248;SDS011;29923;48.718;9.272;2022-12-11T05:21:12;23.38;;;13.43;;
44248;SDS011;29923;48.718;9.272;2022-12-11T05:23:38;23.58;;;14.00;;
44248;SDS011;29923;48.718;9.272;2022-12-11T05:26:04;23.05;;;13.70;;
44248;SDS011;29923;48.718;9.272;2022-12-11T05:28:32;23.85;;;13.60;;
44248;SDS011;29923;48.718;9.272;2022-12-11T05:31:00;21.48;;;11.73;;
44248;SDS011;29923;48.718;9.272;2022-12-11T05:33:30;23.40;;;13.73;;
44248;SDS011;29923;48.718;9.272;2022-12-11T05:35:55;22.42;;;13.23;;
44248;SDS011;29923;48.718;9.272;2022-12-11T05:38:21;23.15;;;14.00;;
44248;SDS011;29923;48.718;9.272;2022-12-11T05:40:56;25.73;;;13.70;;
44248;SDS011;29923;48.718;9.272;2022-12-11T05:43:29;25.67;;;14.88;;
44248;SDS011;29923;48.718;9.272;2022-12-11T05:46:03;27.75;;;15.10;;
44248;SDS011;29923;48.718;9.272;2022-12-11T05:50:56;23.98;;;14.65;;
44248;SDS011;29923;48.718;9.272;2022-12-11T05:53:22;23.02;;;13.80;;
44248;SDS011;29923;48.718;9.272;2022-12-11T05:55:48;27.45;;;14.98;;
44248;SDS011;29923;48.718;9.272;2022-12-11T05:58:13;25.50;;;14.02;;
44248;SDS011;29923;48.718;9.272;2022-12-11T06:00:40;26.17;;;14.90;;
44248;SDS011;29923;48.718;9.272;2022-12-11T06:03:06;26.73;;;14.45;;
44248;SDS011;29923;48.718;9.272;2022-12-11T06:05:31;26.50;;;14.45;;
44248;SDS011;29923;48.718;9.272;2022-12-11T06:08:01;26.58;;;14.80;;
44248;SDS011;29923;48.718;9.272;2022-12-11T06:10:27;27.40;;;14.85;;
44248;SDS011;29923;48.718;9.272;2022-12-11T06:12:52;22.67;;;13.70;;
44248;SDS011;29923;48.718;9.272;2022-12-11T06:15:17;27.95;;;15.48;;
44248;SDS011;29923;48.718;9.272;2022-12-11T06:17:43;28.40;;;14.93;;
44248;SDS011;29923;48.718;9.272;2022-12-11T06:20:08;26.83;;;15.07;;
44248;SDS011;29923;48.718;9.272;2022-12-11T06:22:34;25.58;;;15.10;;
44248;SDS011;29923;48.718;9.272;2022-12-11T06:24:59;28.30;;;15.80;;
44248;SDS011;29923;48.718;9.272;2022-12-11T06:27:24;23.33;;;14.32;;
44248;SDS011;29923;48.718;9.272;2022-12-11T06:29:50;25.35;;;15.13;;
44248;SDS011;29923;48.718;9.272;2022-12-11T06:32:15;26.73;;;15.60;;
44248;SDS011;29923;48.718;9.272;2022-12-11T06:34:40;28.75;;;16.05;;
44248;SDS011;29923;48.718;9.272;2022-12-11T06:37:06;25.25;;;15.07;;
44248;SDS011;29923;48.718;9.272;2022-12-11T06:39:31;26.98;;;16.35;;
44248;SDS011;29923;48.718;9.272;2022-12-11T06:41:56;27.48;;;16.02;;
44248;SDS011;29923;48.718;9.272;2022-12-11T06:44:22;30.33;;;16.60;;
44248;SDS011;29923;48.718;9.272;2022-12-11T06:46:48;30.58;;;16.45;;
44248;SDS011;29923;48.718;9.272;2022-12-11T06:49:14;30.67;;;15.32;;
44248;SDS011;29923;48.718;9.272;2022-12-11T06:51:39;28.98;;;15.57;;
44248;SDS011;29923;48.718;9.272;2022-12-11T06:54:04;29.73;;;17.02;;
44248;SDS011;29923;48.718;9.272;2022-12-11T06:56:30;28.80;;;16.00;;
44248;SDS011;29923;48.718;9.272;2022-12-11T06:58:55;50.08;;;31.52;;
44248;SDS011;29923;48.718;9.272;2022-12-11T07:01:27;32.85;;;17.10;;
44248;SDS011;29923;48.718;9.272;2022-12-11T07:03:53;27.23;;;15.93;;
44248;SDS011;29923;48.718;9.272;2022-12-11T07:06:22;31.45;;;16.23;;
44248;SDS011;29923;48.718;9.272;2022-12-11T07:08:48;27.38;;;14.23;;
44248;SDS011;29923;48.718;9.272;2022-12-11T07:11:14;28.60;;;15.68;;
44248;SDS011;29923;48.718;9.272;2022-12-11T07:13:40;26.83;;;14.55;;
44248;SDS011;29923;48.718;9.272;2022-12-11T07:16:06;25.05;;;15.10;;
44248;SDS011;29923;48.718;9.272;2022-12-11T07:18:35;26.95;;;14.80;;
44248;SDS011;29923;48.718;9.272;2022-12-11T07:21:04;29.00;;;15.02;;
44248;SDS011;29923;48.718;9.272;2022-12-11T07:23:30;25.90;;;15.13;;
44248;SDS011;29923;48.718;9.272;2022-12-11T07:25:56;28.85;;;15.20;;
44248;SDS011;29923;48.718;9.272;2022-12-11T07:28:22;32.22;;;14.68;;
44248;SDS011;29923;48.718;9.272;2022-12-11T07:30:47;25.67;;;14.10;;
44248;SDS011;29923;48.718;9.272;2022-12-11T07:33:13;23.58;;;13.93;;
44248;SDS011;29923;48.718;9.272;2022-12-11T07:35:38;28.42;;;14.80;;
44248;SDS011;29923;48.718;9.272;2022-12-11T07:38:03;26.33;;;13.88;;
44248;SDS011;29923;48.718;9.272;2022-12-11T07:40:29;27.10;;;14.43;;
44248;SDS011;29923;48.718;9.272;2022-12-11T07:42:54;25.00;;;14.23;;
44248;SDS011;29923;48.718;9.272;2022-12-11T07:45:20;25.60;;;15.10;;
44248;SDS011;29923;48.718;9.272;2022-12-11T07:47:45;26.58;;;14.48;;
44248;SDS011;29923;48.718;9.272;2022-12-11T07:50:10;27.90;;;14.55;;
44248;SDS011;29923;48.718;9.272;2022-12-11T07:52:35;30.60;;;13.15;;
44248;SDS011;29923;48.718;9.272;2022-12-11T07:55:01;28.60;;;14.73;;
44248;SDS011;29923;48.718;9.272;2022-12-11T07:57:26;26.15;;;14.68;;
44248;SDS011;29923;48.718;9.272;2022-12-11T07:59:52;31.42;;;16.20;;
44248;SDS011;29923;48.718;9.272;2022-12-11T08:02:17;35.75;;;20.33;;
44248;SDS011;29923;48.718;9.272;2022-12-11T08:04:43;34.90;;;16.08;;
44248;SDS011;29923;48.718;9.272;2022-12-11T08:07:08;25.75;;;14.85;;
44248;SDS011;29923;48.718;9.272;2022-12-11T08:09:33;31.52;;;16.20;;
44248;SDS011;29923;48.718;9.272;2022-12-11T08:11:59;36.42;;;15.20;;
44248;SDS011;29923;48.718;9.272;2022-12-11T08:14:24;33.08;;;16.70;;
44248;SDS011;29923;48.718;9.272;2022-12-11T08:16:50;33.65;;;14.85;;
44248;SDS011;29923;48.718;9.272;2022-12-11T08:19:15;36.42;;;15.55;;
44248;SDS011;29923;48.718;9.272;2022-12-11T08:21:41;28.23;;;15.43;;
44248;SDS011;29923;48.718;9.272;2022-12-11T08:24:07;28.73;;;15.60;;
44248;SDS011;29923;48.718;9.272;2022-12-11T08:26:32;29.42;;;16.30;;
44248;SDS011;29923;48.718;9.272;2022-12-11T08:28:58;26.85;;;15.32;;
44248;SDS011;29923;48.718;9.272;2022-12-11T08:31:24;27.17;;;15.30;;
44248;SDS011;29923;48.718;9.272;2022-12-11T08:33:50;28.70;;;15.25;;
44248;SDS011;29923;48.718;9.272;2022-12-11T08:36:17;29.10;;;16.13;;
44248;SDS011;29923;48.718;9.272;2022-12-11T08:38:43;25.00;;;16.63;;
44248;SDS011;29923;48.718;9.272;2022-12-11T08:41:11;27.38;;;15.60;;
44248;SDS011;29923;48.718;9.272;2022-12-11T08:43:37;30.83;;;16.17;;
44248;SDS011;29923;48.718;9.272;2022-12-11T08:46:03;25.00;;;14.73;;
44248;SDS011;29923;48.718;9.272;2022-12-11T08:48:28;27.48;;;15.63;;
44248;SDS011;29923;48.718;9.272;2022-12-11T08:50:54;29.67;;;16.40;;
44248;SDS011;29923;48.718;9.272;2022-12-11T08:53:23;29.15;;;17.45;;
44248;SDS011;29923;48.718;9.272;2022-12-11T08:55:48;30.63;;;17.52;;
44248;SDS011;29923;48.718;9.272;2022-12-11T08:58:14;31.30;;;18.15;;
44248;SDS011;29923;48.718;9.272;2022-12-11T09:00:39;37.05;;;17.88;;
44248;SDS011;29923;48.718;9.272;2022-12-11T09:03:05;38.92;;;18.35;;
44248;SDS011;29923;48.718;9.272;2022-12-11T09:05:30;32.05;;;15.95;;
44248;SDS011;29923;48.718;9.272;2022-12-11T09:07:57;30.58;;;17.15;;
44248;SDS011;29923;48.718;9.272;2022-12-11T09:10:22;29.35;;;15.75;;
44248;SDS011;29923;48.718;9.272;2022-12-11T09:12:47;30.70;;;18.13;;
44248;SDS011;29923;48.718;9.272;2022-12-11T09:15:13;32.05;;;16.52;;
44248;SDS011;29923;48.718;9.272;2022-12-11T09:17:38;28.85;;;15.65;;
44248;SDS011;29923;48.718;9.272;2022-12-11T09:20:03;28.52;;;16.73;;
44248;SDS011;29923;48.718;9.272;2022-12-11T09:22:30;30.13;;;16.55;;
44248;SDS011;29923;48.718;9.272;2022-12-11T09:24:57;29.15;;;16.40;;
44248;SDS011;29923;48.718;9.272;2022-12-11T09:27:22;29.52;;;16.52;;
44248;SDS011;29923;48.718;9.272;2022-12-11T09:29:48;35.35;;;18.58;;
44248;SDS011;29923;48.718;9.272;2022-12-11T09:32:13;30.55;;;16.33;;
44248;SDS011;29923;48.718;9.272;2022-12-11T09:34:39;33.80;;;18.23;;
44248;SDS011;29923;48.718;9.272;2022-12-11T09:37:04;30.55;;;17.58;;
44248;SDS011;29923;48.718;9.272;2022-12-11T09:39:29;34.35;;;18.15;;
44248;SDS011;29923;48.718;9.272;2022-12-11T09:42:14;33.03;;;18.55;;
44248;SDS011;29923;48.718;9.272;2022-12-11T09:44:47;34.20;;;18.05;;
44248;SDS011;29923;48.718;9.272;2022-12-11T09:47:22;32.65;;;17.10;;
44248;SDS011;29923;48.718;9.272;2022-12-11T09:50:02;30.95;;;18.05;;
44248;SDS011;29923;48.718;9.272;2022-12-11T09:55:22;34.22;;;18.42;;
44248;SDS011;29923;48.718;9.272;2022-12-11T09:58:05;31.40;;;18.23;;
44248;SDS011;29923;48.718;9.272;2022-12-11T10:00:39;31.63;;;17.63;;
44248;SDS011;29923;48.718;9.272;2022-12-11T10:05:59;31.20;;;17.48;;
44248;SDS011;29923;48.718;9.272;2022-12-11T10:14:17;28.35;;;17.20;;
44248;SDS011;29923;48.718;9.272;2022-12-11T10:17:15;27.48;;;16.58;;
44248;SDS011;29923;48.718;9.272;2022-12-11T10:19:42;27.80;;;17.35;;
44248;SDS011;29923;48.718;9.272;2022-12-11T10:22:11;29.85;;;16.98;;
44248;SDS011;29923;48.718;9.272;2022-12-11T10:25:02;31.85;;;17.67;;
44248;SDS011;29923;48.718;9.272;2022-12-11T10:27:30;30.95;;;17.52;;
44248;SDS011;29923;48.718;9.272;2022-12-11T10:32:34;31.67;;;18.02;;
44248;SDS011;29923;48.718;9.272;2022-12-11T10:35:16;27.33;;;16.75;;
44248;SDS011;29923;48.718;9.272;2022-12-11T10:37:43;29.95;;;16.85;;
44248;SDS011;29923;48.718;9.272;2022-12-11T10:40:08;29.42;;;16.15;;
44248;SDS011;29923;48.718;9.272;2022-12-11T10:42:34;27.15;;;17.00;;
44248;SDS011;29923;48.718;9.272;2022-12-11T10:45:00;32.00;;;17.58;;
44248;SDS011;29923;48.718;9.272;2022-12-11T10:47:27;29.55;;;15.88;;
44248;SDS011;29923;48.718;9.272;2022-12-11T10:49:54;31.20;;;16.25;;
44248;SDS011;29923;48.718;9.272;2022-12-11T10:52:23;26.88;;;15.70;;
44248;SDS011;29923;48.718;9.272;2022-12-11T10:55:03;29.42;;;16.10;;
44248;SDS011;29923;48.718;9.272;2022-12-11T10:57:45;30.20;;;16.00;;
44248;SDS011;29923;48.718;9.272;2022-12-11T11:00:29;30.23;;;16.40;;
44248;SDS011;29923;48.718;9.272;2022-12-11T11:02:57;27.15;;;15.85;;
44248;SDS011;29923;48.718;9.272;2022-12-11T11:05:27;29.35;;;17.48;;
44248;SDS011;29923;48.718;9.272;2022-12-11T11:08:03;32.83;;;17.75;;
44248;SDS011;29923;48.718;9.272;2022-12-11T11:10:36;26.70;;;14.73;;
44248;SDS011;29923;48.718;9.272;2022-12-11T11:13:02;32.85;;;17.13;;
44248;SDS011;29923;48.718;9.272;2022-12-11T11:15:28;29.70;;;17.25;;
44248;SDS011;29923;48.718;9.272;2022-12-11T11:17:55;29.13;;;16.45;;
44248;SDS011;29923;48.718;9.272;2022-12-11T11:20:22;29.30;;;16.05;;
44248;SDS011;29923;48.718;9.272;2022-12-11T11:22:51;33.17;;;17.58;;
44248;SDS011;29923;48.718;9.272;2022-12-11T11:25:19;31.05;;;17.65;;
44248;SDS011;29923;48.718;9.272;2022-12-11T11:27:53;35.78;;;17.55;;
44248;SDS011;29923;48.718;9.272;2022-12-11T11:30:22;27.98;;;16.77;;
44248;SDS011;29923;48.718;9.272;2022-12-11T11:32:50;31.63;;;15.93;;
44248;SDS011;29923;48.718;9.272;2022-12-11T11:35:20;26.77;;;15.63;;
44248;SDS011;29923;48.718;9.272;2022-12-11T11:40:46;27.98;;;15.65;;
44248;SDS011;29923;48.718;9.272;2022-12-11T11:48:23;26.65;;;15.18;;
44248;SDS011;29923;48.718;9.272;2022-12-11T11:50:53;25.92;;;14.15;;
44248;SDS011;29923;48.718;9.272;2022-12-11T11:53:32;27.05;;;15.18;;
44248;SDS011;29923;48.718;9.272;2022-12-11T11:56:04;28.73;;;15.38;;
44248;SDS011;29923;48.718;9.272;2022-12-11T11:59:14;26.05;;;15.50;;
44248;SDS011;29923;48.718;9.272;2022-12-11T12:01:42;30.15;;;15.82;;
44248;SDS011;29923;48.718;9.272;2022-12-11T12:04:08;36.47;;;19.73;;
44248;SDS011;29923;48.718;9.272;2022-12-11T12:12:42;31.00;;;16.55;;
44248;SDS011;29923;48.718;9.272;2022-12-11T12:15:15;32.80;;;16.92;;
44248;SDS011;29923;48.718;9.272;2022-12-11T12:17:53;29.17;;;16.42;;
44248;SDS011;29923;48.718;9.272;2022-12-11T12:23:14;35.00;;;18.48;;
44248;SDS011;29923;48.718;9.272;2022-12-11T12:28:45;32.53;;;17.10;;
44248;SDS011;29923;48.718;9.272;2022-12-11T12:42:18;30.25;;;16.95;;
44248;SDS011;29923;48.718;9.272;2022-12-11T12:44:53;31.35;;;17.10;;
44248;SDS011;29923;48.718;9.272;2022-12-11T12:47:24;31.30;;;16.23;;
44248;SDS011;29923;48.718;9.272;2022-12-11T12:49:50;61.83;;;35.88;;
44248;SDS011;29923;48.718;9.272;2022-12-11T12:54:56;29.00;;;16.40;;
44248;SDS011;29923;48.718;9.272;2022-12-11T12:57:37;26.83;;;16.55;;
44248;SDS011;29923;48.718;9.272;2022-12-11T13:00:05;30.55;;;16.38;;
44248;SDS011;29923;48.718;9.272;2022-12-11T13:02:32;26.52;;;15.57;;
44248;SDS011;29923;48.718;9.272;2022-12-11T13:04:59;25.50;;;14.88;;
44248;SDS011;29923;48.718;9.272;2022-12-11T13:07:31;28.73;;;16.15;;
44248;SDS011;29923;48.718;9.272;2022-12-11T13:12:38;33.78;;;18.38;;
44248;SDS011;29923;48.718;9.272;2022-12-11T13:15:22;28.70;;;17.20;;
44248;SDS011;29923;48.718;9.272;2022-12-11T13:17:51;33.50;;;17.42;;
44248;SDS011;29923;48.718;9.272;2022-12-11T13:20:18;41.65;;;20.75;;
44248;SDS011;29923;48.718;9.272;2022-12-11T13:22:49;61.47;;;23.63;;
44248;SDS011;29923;48.718;9.272;2022-12-11T13:27:50;42.35;;;19.83;;
44248;SDS011;29923;48.718;9.272;2022-12-11T13:30:20;33.58;;;18.70;;
44248;SDS011;29923;48.718;9.272;2022-12-11T13:35:32;33.90;;;18.48;;
44248;SDS011;29923;48.718;9.272;2022-12-11T13:38:00;34.60;;;18.27;;
44248;SDS011;29923;48.718;9.272;2022-12-11T13:40:32;35.47;;;19.50;;
44248;SDS011;29923;48.718;9.272;2022-12-11T13:43:04;30.20;;;17.83;;
44248;SDS011;29923;48.718;9.272;2022-12-11T13:48:10;29.30;;;17.52;;
44248;SDS011;29923;48.718;9.272;2022-12-11T13:51:00;31.10;;;17.33;;
44248;SDS011;29923;48.718;9.272;2022-12-11T13:53:26;29.60;;;16.40;;
44248;SDS011;29923;48.718;9.272;2022-12-11T13:55:56;31.08;;;18.15;;
44248;SDS011;29923;48.718;9.272;2022-12-11T13:58:22;30.65;;;17.20;;
44248;SDS011;29923;48.718;9.272;2022-12-11T14:00:52;34.08;;;17.20;;
44248;SDS011;29923;48.718;9.272;2022-12-11T14:03:32;32.22;;;19.55;;
44248;SDS011;29923;48.718;9.272;2022-12-11T14:05:58;38.15;;;21.52;;
44248;SDS011;29923;48.718;9.272;2022-12-11T14:08:26;34.60;;;19.08;;
44248;SDS011;29923;48.718;9.272;2022-12-11T14:10:56;36.85;;;20.13;;
44248;SDS011;29923;48.718;9.272;2022-12-11T14:13:26;38.15;;;21.35;;
44248;SDS011;29923;48.718;9.272;2022-12-11T14:15:57;43.05;;;20.00;;
44248;SDS011;29923;48.718;9.272;2022-12-11T14:18:23;37.13;;;20.38;;
44248;SDS011;29923;48.718;9.272;2022-12-11T14:20:52;35.22;;;19.77;;
44248;SDS011;29923;48.718;9.272;2022-12-11T14:23:20;41.53;;;22.08;;
44248;SDS011;29923;48.718;9.272;2022-12-11T14:25:55;38.67;;;20.05;;
44248;SDS011;29923;48.718;9.272;2022-12-11T14:28:40;39.97;;;20.20;;
44248;SDS011;29923;48.718;9.272;2022-12-11T14:31:06;37.13;;;20.35;;
44248;SDS011;29923;48.718;9.272;2022-12-11T14:33:39;43.08;;;22.15;;
44248;SDS011;29923;48.718;9.272;2022-12-11T14:36:07;39.53;;;21.63;;
44248;SDS011;29923;48.718;9.272;2022-12-11T14:38:37;36.08;;;19.70;;
44248;SDS011;29923;48.718;9.272;2022-12-11T14:41:11;36.55;;;19.40;;
44248;SDS011;29923;48.718;9.272;2022-12-11T14:43:45;35.50;;;18.20;;
44248;SDS011;29923;48.718;9.272;2022-12-11T14:46:15;31.90;;;18.15;;
44248;SDS011;29923;48.718;9.272;2022-12-11T14:48:43;36.10;;;19.15;;
44248;SDS011;29923;48.718;9.272;2022-12-11T14:51:13;35.42;;;20.30;;
44248;SDS011;29923;48.718;9.272;2022-12-11T14:53:48;32.45;;;19.60;;
44248;SDS011;29923;48.718;9.272;2022-12-11T14:56:24;32.70;;;15.32;;
44248;SDS011;29923;48.718;9.272;2022-12-11T14:58:53;37.63;;;21.50;;
44248;SDS011;29923;48.718;9.272;2022-12-11T15:06:32;42.60;;;24.83;;
44248;SDS011;29923;48.718;9.272;2022-12-11T15:12:09;51.67;;;27.95;;
44248;SDS011;29923;48.718;9.272;2022-12-11T15:14:47;52.55;;;29.27;;
44248;SDS011;29923;48.718;9.272;2022-12-11T15:17:14;47.65;;;24.95;;
44248;SDS011;29923;48.718;9.272;2022-12-11T15:19:40;45.22;;;24.20;;
44248;SDS011;29923;48.718;9.272;2022-12-11T15:22:06;45.65;;;24.75;;
44248;SDS011;29923;48.718;9.272;2022-12-11T15:24:36;53.33;;;28.83;;
44248;SDS011;29923;48.718;9.272;2022-12-11T15:27:04;55.50;;;26.48;;
44248;SDS011;29923;48.718;9.272;2022-12-11T15:31:59;51.95;;;27.92;;
44248;SDS011;29923;48.718;9.272;2022-12-11T15:34:40;50.78;;;26.05;;
44248;SDS011;29923;48.718;9.272;2022-12-11T15:39:41;49.92;;;25.63;;
44248;SDS011;29923;48.718;9.272;2022-12-11T15:42:08;47.70;;;24.83;;
44248;SDS011;29923;48.718;9.272;2022-12-11T15:44:35;54.33;;;26.52;;
44248;SDS011;29923;48.718;9.272;2022-12-11T15:47:09;53.55;;;26.70;;
44248;SDS011;29923;48.718;9.272;2022-12-11T15:49:36;51.72;;;25.67;;
44248;SDS011;29923;48.718;9.272;2022-12-11T15:52:01;51.20;;;28.00;;
44248;SDS011;29923;48.718;9.272;2022-12-11T15:54:27;50.75;;;27.30;;
44248;SDS011;29923;48.718;9.272;2022-12-11T15:56:52;48.17;;;25.08;;
44248;SDS011;29923;48.718;9.272;2022-12-11T15:59:18;50.00;;;28.00;;
44248;SDS011;29923;48.718;9.272;2022-12-11T16:01:43;53.17;;;27.77;;
44248;SDS011;29923;48.718;9.272;2022-12-11T16:04:09;51.60;;;26.75;;
44248;SDS011;29923;48.718;9.272;2022-12-11T16:06:35;54.13;;;27.48;;